createdAt,value
2023-12-11T00:02:17.297Z,-0.47
2023-12-11T00:04:45.824Z,-0.44
2023-12-11T00:07:14.152Z,-0.40
2023-12-11T00:09:43.695Z,-0.52
2023-12-11T00:12:11.838Z,-0.49
2023-12-11T00:14:40.334Z,-0.42
2023-12-11T00:17:08.496Z,-0.42
2023-12-11T00:19:36.665Z,-0.39
2023-12-11T00:22:05.152Z,-0.34
2023-12-11T00:24:33.821Z,-0.33
2023-12-11T00:27:02.042Z,-0.34
2023-12-11T00:29:30.182Z,-0.33
2023-12-11T00:32:00.891Z,-0.45
2023-12-11T00:34:29.350Z,-0.41
2023-12-11T00:36:57.652Z,-0.38
2023-12-11T00:39:26.437Z,-0.38
2023-12-11T00:41:54.891Z,-0.37
2023-12-11T00:44:22.937Z,-0.37
2023-12-11T00:46:51.214Z,-0.41
2023-12-11T00:49:19.513Z,-0.42
2023-12-11T00:51:54.183Z,-0.37
2023-12-11T00:54:22.458Z,-0.36
2023-12-11T00:56:50.788Z,-0.33
2023-12-11T00:59:19.020Z,-0.29
2023-12-11T01:01:47.170Z,-0.26
2023-12-11T01:04:15.639Z,-0.28
2023-12-11T01:06:43.908Z,-0.36
2023-12-11T01:09:14.206Z,-0.40
2023-12-11T01:11:42.371Z,-0.42
2023-12-11T01:14:10.672Z,-0.39
2023-12-11T01:16:38.839Z,-0.36
2023-12-11T01:19:08.574Z,-0.29
2023-12-11T01:21:36.912Z,-0.27
2023-12-11T01:24:05.447Z,-0.30
2023-12-11T01:26:33.657Z,-0.31
2023-12-11T01:29:01.829Z,-0.28
2023-12-11T01:31:30.942Z,-0.24
2023-12-11T01:33:59.059Z,-0.18
2023-12-11T01:36:27.562Z,-0.17
2023-12-11T01:38:55.644Z,-0.25
2023-12-11T01:41:23.815Z,-0.23
2023-12-11T01:43:55.703Z,-0.15
2023-12-11T01:46:25.907Z,-0.17
2023-12-11T01:48:55.095Z,-0.17
2023-12-11T01:51:24.331Z,-0.15
2023-12-11T01:53:53.233Z,-0.14
2023-12-11T01:56:22.378Z,-0.15
2023-12-11T01:58:51.925Z,-0.22
2023-12-11T02:01:25.870Z,-0.20
2023-12-11T02:03:54.325Z,-0.18
2023-12-11T02:06:22.890Z,-0.16
2023-12-11T02:08:54.970Z,-0.18
2023-12-11T02:11:23.241Z,-0.18
2023-12-11T02:13:51.463Z,-0.22
2023-12-11T02:16:22.722Z,-0.25
2023-12-11T02:18:52.192Z,-0.24
2023-12-11T02:21:20.669Z,-0.25
2023-12-11T02:23:55.384Z,-0.29
2023-12-11T02:26:23.753Z,-0.27
2023-12-11T02:28:52.383Z,-0.29
2023-12-11T02:31:20.716Z,-0.34
2023-12-11T02:33:49.109Z,-0.40
2023-12-11T02:36:17.430Z,-0.49
2023-12-11T02:38:45.802Z,-0.45
2023-12-11T02:41:14.157Z,-0.51
2023-12-11T02:43:42.983Z,-0.45
2023-12-11T02:46:11.438Z,-0.43
2023-12-11T02:48:41.164Z,-0.42
2023-12-11T02:51:09.649Z,-0.39
2023-12-11T02:53:37.924Z,-0.48
2023-12-11T02:56:06.408Z,-0.46
2023-12-11T02:58:34.640Z,-0.54
2023-12-11T03:01:02.975Z,-0.44
2023-12-11T03:03:31.997Z,-0.42
2023-12-11T03:06:01.824Z,-0.42
2023-12-11T03:08:30.214Z,-0.39
2023-12-11T03:10:59.100Z,-0.38
2023-12-11T03:13:27.272Z,-0.36
2023-12-11T03:15:55.980Z,-0.43
2023-12-11T03:18:24.259Z,-0.51
2023-12-11T03:20:52.486Z,-0.51
2023-12-11T03:23:20.625Z,-0.49
2023-12-11T03:25:48.887Z,-0.50
2023-12-11T03:28:17.115Z,-0.49
2023-12-11T03:30:45.924Z,-0.56
2023-12-11T03:33:14.634Z,-0.53
2023-12-11T03:35:42.982Z,-0.51
2023-12-11T03:38:11.125Z,-0.54
2023-12-11T03:40:39.356Z,-0.46
2023-12-11T03:43:07.715Z,-0.48
2023-12-11T03:45:36.957Z,-0.43
2023-12-11T03:48:06.121Z,-0.42
2023-12-11T03:50:34.269Z,-0.41
2023-12-11T03:53:02.403Z,-0.34
2023-12-11T03:55:30.628Z,-0.44
2023-12-11T03:57:59.248Z,-0.40
2023-12-11T04:00:27.529Z,-0.37
2023-12-11T04:02:55.693Z,-0.33
2023-12-11T04:05:25.346Z,-0.28
2023-12-11T04:07:54.705Z,-0.29
2023-12-11T04:10:23.837Z,-0.28
2023-12-11T04:12:52.545Z,-0.24
2023-12-11T04:15:20.641Z,-0.23
2023-12-11T04:17:49.523Z,-0.35
2023-12-11T04:20:17.819Z,-0.37
2023-12-11T04:22:45.948Z,-0.33
2023-12-11T04:25:14.296Z,-0.38
2023-12-11T04:27:42.526Z,-0.40
2023-12-11T04:30:11.178Z,-0.42
2023-12-11T04:32:39.898Z,-0.40
2023-12-11T04:35:08.492Z,-0.36
2023-12-11T04:37:37.731Z,-0.34
2023-12-11T04:40:06.748Z,-0.31
2023-12-11T04:42:36.360Z,-0.33
2023-12-11T04:45:07.275Z,-0.32
2023-12-11T04:47:37.611Z,-0.27
2023-12-11T04:50:06.475Z,-0.25
2023-12-11T04:52:34.791Z,-0.22
2023-12-11T04:55:02.993Z,-0.19
2023-12-11T04:57:34.286Z,-0.25
2023-12-11T05:00:02.605Z,-0.21
2023-12-11T05:02:30.810Z,-0.14
2023-12-11T05:05:00.391Z,-0.16
2023-12-11T05:07:28.999Z,-0.06
2023-12-11T05:09:57.409Z,-0.24
2023-12-11T05:12:25.489Z,-0.24
2023-12-11T05:14:54.052Z,-0.20
2023-12-11T05:17:23.463Z,-0.13
2023-12-11T05:19:54.454Z,-0.06
2023-12-11T05:22:23.058Z,-0.02
2023-12-11T05:24:53.557Z,-0.07
2023-12-11T05:27:22.615Z,-0.02
2023-12-11T05:29:50.786Z,0.01
2023-12-11T05:32:18.973Z,-0.04
2023-12-11T05:34:47.503Z,-0.00
2023-12-11T05:37:15.750Z,0.02
2023-12-11T05:39:53.973Z,-0.02
2023-12-11T05:42:26.314Z,-0.03
2023-12-11T05:44:57.175Z,-0.08
2023-12-11T05:47:25.680Z,0.02
2023-12-11T05:49:54.695Z,-0.01
2023-12-11T05:52:23.095Z,0.02
2023-12-11T05:54:51.620Z,0.03
2023-12-11T05:57:20.013Z,0.07
2023-12-11T05:59:48.713Z,0.08
2023-12-11T06:02:17.013Z,0.14
2023-12-11T06:04:45.269Z,0.21
2023-12-11T06:07:13.674Z,0.25
2023-12-11T06:09:42.792Z,0.31
2023-12-11T06:12:11.756Z,0.36
2023-12-11T06:14:49.844Z,0.40
2023-12-11T06:17:18.752Z,0.40
2023-12-11T06:19:49.803Z,0.44
2023-12-11T06:22:18.006Z,0.43
2023-12-11T06:24:47.285Z,0.28
2023-12-11T06:27:15.824Z,0.19
2023-12-11T06:29:44.679Z,0.20
2023-12-11T06:32:13.227Z,0.24
2023-12-11T06:34:42.939Z,0.18
2023-12-11T06:37:11.446Z,0.30
2023-12-11T06:39:39.943Z,0.33
2023-12-11T06:42:09.416Z,0.31
2023-12-11T06:44:37.707Z,0.23
2023-12-11T06:47:06.057Z,0.27
2023-12-11T06:49:35.523Z,0.33
2023-12-11T06:52:07.481Z,0.36
2023-12-11T06:54:36.324Z,0.44
2023-12-11T06:57:05.005Z,0.46
2023-12-11T06:59:38.287Z,0.40
2023-12-11T07:02:07.773Z,0.41
2023-12-11T07:04:36.863Z,0.42
2023-12-11T07:07:05.797Z,0.38
2023-12-11T07:09:34.494Z,0.41
2023-12-11T07:12:03.007Z,0.48
2023-12-11T07:14:33.408Z,0.52
2023-12-11T07:17:01.932Z,0.56
2023-12-11T07:19:30.884Z,0.64
2023-12-11T07:21:59.882Z,0.70
2023-12-11T07:24:28.564Z,0.74
2023-12-11T07:26:56.817Z,0.68
2023-12-11T07:29:25.158Z,0.84
2023-12-11T07:31:54.223Z,0.96
2023-12-11T07:34:24.336Z,0.96
2023-12-11T07:36:54.770Z,1.19
2023-12-11T07:39:23.846Z,1.23
2023-12-11T07:41:53.174Z,1.30
2023-12-11T07:44:22.926Z,1.41
2023-12-11T07:46:51.926Z,1.38
2023-12-11T07:49:20.604Z,1.38
2023-12-11T07:51:56.351Z,1.43
2023-12-11T07:54:25.454Z,1.56
2023-12-11T07:56:54.080Z,1.65
2023-12-11T07:59:35.542Z,1.67
2023-12-11T08:02:18.846Z,1.76
2023-12-11T08:04:56.339Z,1.74
2023-12-11T08:07:26.802Z,1.68
2023-12-11T08:09:55.557Z,1.41
2023-12-11T08:12:24.031Z,1.31
2023-12-11T08:14:52.690Z,1.31
2023-12-11T08:17:26.731Z,1.38
2023-12-11T08:19:56.088Z,1.37
2023-12-11T08:22:28.644Z,1.49
2023-12-11T08:24:58.306Z,1.49
2023-12-11T08:27:29.769Z,1.60
2023-12-11T08:30:01.539Z,1.72
2023-12-11T08:32:31.374Z,1.85
2023-12-11T08:35:05.530Z,2.06
2023-12-11T08:37:35.242Z,2.05
2023-12-11T08:40:07.540Z,2.16
2023-12-11T08:42:45.593Z,2.28
2023-12-11T08:45:15.850Z,2.29
2023-12-11T08:47:45.188Z,2.21
2023-12-11T08:50:14.158Z,2.13
2023-12-11T08:52:44.891Z,2.27
2023-12-11T08:55:13.771Z,2.32
2023-12-11T08:57:46.283Z,2.13
2023-12-11T09:00:15.485Z,2.21
2023-12-11T09:02:44.144Z,2.28
2023-12-11T09:05:14.710Z,2.39
2023-12-11T09:07:47.579Z,2.38
2023-12-11T09:10:16.446Z,2.51
2023-12-11T09:12:47.041Z,2.45
2023-12-11T09:15:15.634Z,2.54
2023-12-11T09:17:45.848Z,2.64
2023-12-11T09:20:17.773Z,2.64
2023-12-11T09:22:58.800Z,2.82
2023-12-11T09:25:35.349Z,2.91
2023-12-11T09:28:11.015Z,2.88
2023-12-11T09:30:42.196Z,2.95
2023-12-11T09:33:17.534Z,2.83
2023-12-11T09:36:05.717Z,2.76
2023-12-11T09:39:15.324Z,2.91
2023-12-11T09:41:53.733Z,2.97
2023-12-11T09:44:27.328Z,3.13
2023-12-11T09:47:35.572Z,2.92
2023-12-11T09:50:17.739Z,2.78
2023-12-11T09:53:07.826Z,2.85
2023-12-11T09:56:02.065Z,3.03
2023-12-11T09:58:37.032Z,3.00
2023-12-11T10:01:09.525Z,2.84
2023-12-11T10:03:38.474Z,2.96
2023-12-11T10:06:10.917Z,3.06
2023-12-11T10:08:54.106Z,3.10
2023-12-11T10:11:26.275Z,3.12
2023-12-11T10:13:55.603Z,3.21
2023-12-11T10:16:30.025Z,3.20
2023-12-11T10:19:03.353Z,3.24
2023-12-11T10:21:41.290Z,3.19
2023-12-11T10:24:20.404Z,3.21
2023-12-11T10:26:57.544Z,3.07
2023-12-11T10:29:32.074Z,3.04
2023-12-11T10:32:05.664Z,3.07
2023-12-11T10:34:41.989Z,3.11
2023-12-11T10:37:15.464Z,3.06
2023-12-11T10:39:54.683Z,3.02
2023-12-11T10:42:24.419Z,3.05
2023-12-11T10:44:57.064Z,3.16
2023-12-11T10:50:20.136Z,3.47
2023-12-11T10:52:50.697Z,3.53
2023-12-11T10:55:22.163Z,3.57
2023-12-11T10:57:53.149Z,3.61
2023-12-11T11:00:25.263Z,3.70
2023-12-11T11:02:58.925Z,3.75
2023-12-11T11:05:30.400Z,3.72
2023-12-11T11:08:02.119Z,3.77
2023-12-11T11:10:43.331Z,3.85
2023-12-11T11:13:22.644Z,3.86
2023-12-11T11:15:57.344Z,4.04
2023-12-11T11:18:26.058Z,4.15
2023-12-11T11:21:15.062Z,4.14
2023-12-11T11:23:47.276Z,4.11
2023-12-11T11:26:36.929Z,4.11
2023-12-11T11:29:08.379Z,4.22
2023-12-11T11:31:58.632Z,4.19
2023-12-11T11:34:47.519Z,4.07
2023-12-11T11:37:22.317Z,3.94
2023-12-11T11:40:07.289Z,3.96
2023-12-11T11:42:37.222Z,3.86
2023-12-11T11:45:28.105Z,3.51
2023-12-11T11:47:56.512Z,3.48
2023-12-11T11:50:27.349Z,3.48
2023-12-11T11:53:03.808Z,3.50
2023-12-11T11:55:36.372Z,3.51
2023-12-11T11:58:21.589Z,3.45
2023-12-11T12:01:05.105Z,3.46
2023-12-11T12:03:51.123Z,3.42
2023-12-11T12:06:22.627Z,3.37
2023-12-11T12:08:53.908Z,3.27
2023-12-11T12:11:25.263Z,3.31
2023-12-11T12:13:55.291Z,3.35
2023-12-11T12:16:30.387Z,3.37
2023-12-11T12:19:00.006Z,3.43
2023-12-11T12:21:28.997Z,3.42
2023-12-11T12:24:05.144Z,3.50
2023-12-11T12:26:37.021Z,3.48
2023-12-11T12:29:11.137Z,3.41
2023-12-11T12:31:43.124Z,3.37
2023-12-11T12:34:17.895Z,3.29
2023-12-11T12:36:54.645Z,3.29
2023-12-11T12:39:37.503Z,3.21
2023-12-11T12:42:15.581Z,3.22
2023-12-11T12:44:44.186Z,3.02
2023-12-11T12:47:13.641Z,3.10
2023-12-11T12:49:47.112Z,3.13
2023-12-11T12:52:27.015Z,3.21
2023-12-11T12:54:57.512Z,3.18
2023-12-11T12:57:25.731Z,3.17
2023-12-11T13:00:03.969Z,3.22
2023-12-11T13:02:34.877Z,3.19
2023-12-11T13:05:07.031Z,3.14
2023-12-11T13:07:36.014Z,3.22
2023-12-11T13:10:12.471Z,3.22
2023-12-11T13:12:42.828Z,3.15
2023-12-11T13:15:11.894Z,3.06
2023-12-11T13:17:45.216Z,2.93
2023-12-11T13:20:16.118Z,2.98
2023-12-11T13:22:45.609Z,2.95
2023-12-11T13:25:24.228Z,2.91
2023-12-11T13:27:52.414Z,2.89
2023-12-11T13:30:26.822Z,2.78
2023-12-11T13:32:55.477Z,2.88
2023-12-11T13:35:47.442Z,2.89
2023-12-11T13:38:16.901Z,2.93
2023-12-11T13:40:47.335Z,2.92
2023-12-11T13:43:17.929Z,2.83
2023-12-11T13:46:08.759Z,2.76
2023-12-11T13:48:49.647Z,2.79
2023-12-11T13:51:18.874Z,2.64
2023-12-11T13:54:01.302Z,2.61
2023-12-11T13:56:36.029Z,2.61
2023-12-11T13:59:18.284Z,2.62
2023-12-11T14:01:59.193Z,2.60
2023-12-11T14:04:48.132Z,2.55
2023-12-11T14:07:23.860Z,2.51
2023-12-11T14:10:11.270Z,2.55
2023-12-11T14:13:00.846Z,2.44
2023-12-11T14:15:54.518Z,2.45
2023-12-11T14:18:28.149Z,2.46
2023-12-11T14:21:21.861Z,2.44
2023-12-11T14:23:56.659Z,2.41
2023-12-11T14:26:29.384Z,2.40
2023-12-11T14:29:13.577Z,2.32
2023-12-11T14:31:55.072Z,2.26
2023-12-11T14:34:32.992Z,2.17
2023-12-11T14:37:02.612Z,2.06
2023-12-11T14:39:43.490Z,1.99
2023-12-11T14:42:20.918Z,1.87
2023-12-11T14:44:55.616Z,1.87
2023-12-11T14:47:35.289Z,1.87
2023-12-11T14:50:18.944Z,1.80
2023-12-11T14:52:47.580Z,1.74
2023-12-11T14:55:25.035Z,1.76
2023-12-11T14:57:55.017Z,1.73
2023-12-11T15:00:27.011Z,1.68
2023-12-11T15:02:55.605Z,1.69
2023-12-11T15:05:27.930Z,1.72
2023-12-11T15:07:58.215Z,1.74
2023-12-11T15:10:27.364Z,1.77
2023-12-11T15:13:02.399Z,1.76
2023-12-11T15:15:32.279Z,1.80
2023-12-11T15:18:01.646Z,1.84
2023-12-11T15:20:32.495Z,1.89
2023-12-11T15:23:06.962Z,1.85
2023-12-11T15:25:36.319Z,1.93
2023-12-11T15:28:09.550Z,1.94
2023-12-11T15:30:39.018Z,1.97
2023-12-11T15:33:12.725Z,1.95
2023-12-11T15:35:41.455Z,1.90
2023-12-11T15:38:10.806Z,1.90
2023-12-11T15:40:40.086Z,1.82
2023-12-11T15:43:08.961Z,1.78
2023-12-11T15:45:37.410Z,1.73
2023-12-11T15:48:08.752Z,1.67
2023-12-11T15:50:52.066Z,1.63
2023-12-11T15:53:24.766Z,1.56
2023-12-11T15:55:53.201Z,1.50
2023-12-11T15:58:22.403Z,1.49
2023-12-11T16:00:54.256Z,1.46
2023-12-11T16:03:23.341Z,1.44
2023-12-11T16:05:54.027Z,1.37
2023-12-11T16:08:22.570Z,1.34
2023-12-11T16:10:51.284Z,1.28
2023-12-11T16:13:22.888Z,1.28
2023-12-11T16:15:51.957Z,1.32
2023-12-11T16:18:20.407Z,1.29
2023-12-11T16:20:52.102Z,1.33
2023-12-11T16:23:21.163Z,1.29
2023-12-11T16:25:56.518Z,1.38
2023-12-11T16:28:31.653Z,1.42
2023-12-11T16:31:00.698Z,1.46
2023-12-11T16:33:31.028Z,1.53
2023-12-11T16:35:59.783Z,1.55
2023-12-11T16:38:33.733Z,1.51
2023-12-11T16:41:02.135Z,1.53
2023-12-11T16:43:32.961Z,1.55
2023-12-11T16:46:02.120Z,1.58
2023-12-11T16:48:31.122Z,1.57
2023-12-11T16:50:59.952Z,1.61
2023-12-11T16:53:28.551Z,1.54
2023-12-11T16:55:58.842Z,1.50
2023-12-11T16:58:27.424Z,1.51
2023-12-11T17:00:55.593Z,1.52
2023-12-11T17:03:23.866Z,1.44
2023-12-11T17:05:53.553Z,1.52
2023-12-11T17:08:22.351Z,1.48
2023-12-11T17:10:50.589Z,1.46
2023-12-11T17:13:20.399Z,1.48
2023-12-11T17:15:51.180Z,1.47
2023-12-11T17:18:21.446Z,1.48
2023-12-11T17:20:49.923Z,1.44
2023-12-11T17:23:18.923Z,1.42
2023-12-11T17:25:47.324Z,1.40
2023-12-11T17:28:17.024Z,1.37
2023-12-11T17:30:47.542Z,1.36
2023-12-11T17:33:15.699Z,1.41
2023-12-11T17:35:43.863Z,1.43
2023-12-11T17:38:14.421Z,1.42
2023-12-11T17:40:43.841Z,1.37
2023-12-11T17:43:12.915Z,1.33
2023-12-11T17:45:44.953Z,1.31
2023-12-11T17:48:13.777Z,1.42
2023-12-11T17:50:42.218Z,1.43
2023-12-11T17:53:12.902Z,1.39
2023-12-11T17:55:44.402Z,1.36
2023-12-11T17:58:13.956Z,1.30
2023-12-11T18:00:42.341Z,1.30
2023-12-11T18:03:10.755Z,1.32
2023-12-11T18:05:40.206Z,1.32
2023-12-11T18:08:12.595Z,1.29
2023-12-11T18:10:40.924Z,1.26
2023-12-11T18:13:11.359Z,1.22
2023-12-11T18:15:39.561Z,1.18
2023-12-11T18:18:08.613Z,1.13
2023-12-11T18:20:36.742Z,1.06
2023-12-11T18:23:08.871Z,1.02
2023-12-11T18:25:37.178Z,0.98
2023-12-11T18:28:05.409Z,0.95
2023-12-11T18:30:33.723Z,0.91
2023-12-11T18:33:01.952Z,0.91
2023-12-11T18:35:30.212Z,0.86
2023-12-11T18:37:59.117Z,0.84
2023-12-11T18:40:29.574Z,0.84
2023-12-11T18:43:00.405Z,0.85
2023-12-11T18:45:28.836Z,0.78
2023-12-11T18:47:58.962Z,0.79
2023-12-11T18:50:27.251Z,0.83
2023-12-11T18:52:57.760Z,0.85
2023-12-11T18:55:31.064Z,0.88
2023-12-11T18:57:59.684Z,0.89
2023-12-11T19:00:28.893Z,0.90
2023-12-11T19:02:57.660Z,0.94
2023-12-11T19:05:26.598Z,0.88
2023-12-11T19:07:56.954Z,0.94
2023-12-11T19:10:26.474Z,0.90
2023-12-11T19:12:57.282Z,0.96
2023-12-11T19:15:26.275Z,1.01
2023-12-11T19:17:57.531Z,1.06
2023-12-11T19:20:25.836Z,1.06
2023-12-11T19:22:53.965Z,1.11
2023-12-11T19:25:22.252Z,1.14
2023-12-11T19:27:50.636Z,1.15
2023-12-11T19:30:18.826Z,1.20
2023-12-11T19:32:47.124Z,1.22
2023-12-11T19:35:16.326Z,1.22
2023-12-11T19:37:44.603Z,1.29
2023-12-11T19:40:13.284Z,1.32
2023-12-11T19:42:48.434Z,1.36
2023-12-11T19:45:18.284Z,1.39
2023-12-11T19:47:49.905Z,1.32
2023-12-11T19:50:18.269Z,1.35
2023-12-11T19:52:51.218Z,1.39
2023-12-11T19:55:20.526Z,1.46
2023-12-11T19:57:51.331Z,1.49
2023-12-11T20:00:19.888Z,1.51
2023-12-11T20:02:48.305Z,1.55
2023-12-11T20:05:17.089Z,1.56
2023-12-11T20:07:45.924Z,1.56
2023-12-11T20:10:16.444Z,1.58
2023-12-11T20:12:46.081Z,1.60
2023-12-11T20:15:14.406Z,1.60
2023-12-11T20:17:42.844Z,1.63
2023-12-11T20:20:11.801Z,1.64
2023-12-11T20:22:40.722Z,1.65
2023-12-11T20:25:10.791Z,1.66
2023-12-11T20:27:39.114Z,1.64
2023-12-11T20:30:11.399Z,1.59
2023-12-11T20:32:40.583Z,1.54
2023-12-11T20:35:09.446Z,1.57
2023-12-11T20:37:38.999Z,1.61
2023-12-11T20:40:08.377Z,1.66
2023-12-11T20:42:39.885Z,1.65
2023-12-11T20:45:09.043Z,1.67
2023-12-11T20:47:39.114Z,1.69
2023-12-11T20:50:13.766Z,1.67
2023-12-11T20:52:42.407Z,1.65
2023-12-11T20:55:12.792Z,1.65
2023-12-11T20:57:42.507Z,1.70
2023-12-11T21:00:12.575Z,1.65
2023-12-11T21:02:42.563Z,1.65
2023-12-11T21:05:11.156Z,1.64
2023-12-11T21:07:42.606Z,1.66
2023-12-11T21:10:11.226Z,1.67
2023-12-11T21:12:39.661Z,1.66
2023-12-11T21:15:10.105Z,1.65
2023-12-11T21:17:41.699Z,1.62
2023-12-11T21:20:10.929Z,1.64
2023-12-11T21:22:39.241Z,1.61
2023-12-11T21:25:08.216Z,1.61
2023-12-11T21:27:36.514Z,1.61
2023-12-11T21:30:08.368Z,1.59
2023-12-11T21:32:36.626Z,1.54
2023-12-11T21:35:05.341Z,1.56
2023-12-11T21:37:34.127Z,1.46
2023-12-11T21:40:02.490Z,1.45
2023-12-11T21:42:31.297Z,1.44
2023-12-11T21:45:02.514Z,1.43
2023-12-11T21:47:31.052Z,1.51
2023-12-11T21:50:00.967Z,1.52
2023-12-11T21:52:29.437Z,1.55
2023-12-11T21:54:58.766Z,1.59
2023-12-11T21:57:27.789Z,1.61
2023-12-11T21:59:56.022Z,1.64
2023-12-11T22:02:26.014Z,1.68
2023-12-11T22:04:54.339Z,1.69
2023-12-11T22:07:22.934Z,1.71
2023-12-11T22:09:51.263Z,1.72
2023-12-11T22:12:19.757Z,1.73
2023-12-11T22:14:48.201Z,1.71
2023-12-11T22:17:16.570Z,1.73
2023-12-11T22:19:44.800Z,1.73
2023-12-11T22:22:13.333Z,1.71
2023-12-11T22:24:41.753Z,1.69
2023-12-11T22:27:10.117Z,1.71
2023-12-11T22:29:39.005Z,1.71
2023-12-11T22:32:07.488Z,1.69
2023-12-11T22:34:39.142Z,1.74
2023-12-11T22:37:07.878Z,1.76
2023-12-11T22:39:36.383Z,1.72
2023-12-11T22:42:05.986Z,1.73
2023-12-11T22:44:34.893Z,1.64
2023-12-11T22:47:03.272Z,1.56
2023-12-11T22:49:32.631Z,1.63
2023-12-11T22:52:01.613Z,1.54
2023-12-11T22:54:30.033Z,1.49
2023-12-11T22:56:59.049Z,1.37
2023-12-11T22:59:27.582Z,1.43
2023-12-11T23:01:55.836Z,1.43
2023-12-11T23:04:24.213Z,1.36
2023-12-11T23:06:52.556Z,1.42
2023-12-11T23:09:20.622Z,1.42
2023-12-11T23:11:48.888Z,1.39
2023-12-11T23:14:17.022Z,1.42
2023-12-11T23:16:46.639Z,1.40
2023-12-11T23:19:19.957Z,1.46
2023-12-11T23:21:49.668Z,1.47
2023-12-11T23:24:18.878Z,1.43
2023-12-11T23:26:47.126Z,1.45
2023-12-11T23:29:15.320Z,1.46
2023-12-11T23:31:43.508Z,1.44
2023-12-11T23:34:12.056Z,1.38
2023-12-11T23:36:40.362Z,1.40
2023-12-11T23:39:08.971Z,1.37
2023-12-11T23:41:37.966Z,1.35
2023-12-11T23:44:06.361Z,1.36
2023-12-11T23:46:34.674Z,1.34
2023-12-11T23:49:03.300Z,1.36
2023-12-11T23:51:31.851Z,1.34
2023-12-11T23:54:00.840Z,1.38
2023-12-11T23:56:29.033Z,1.41
2023-12-11T23:58:57.462Z,1.35
